sensor_id;sensor_type;location;lat;lon;timestamp;temperature;humidity
11093;DHT22;5600;50.864;6.102;2023-09-07T00:01:06;15.00;99.90
11093;DHT22;5600;50.864;6.102;2023-09-07T00:07:08;15.00;99.90
11093;DHT22;5600;50.864;6.102;2023-09-07T00:22:14;14.80;99.90
11093;DHT22;5600;50.864;6.102;2023-09-07T00:31:17;14.70;99.90
11093;DHT22;5600;50.864;6.102;2023-09-07T00:37:19;14.70;99.90
11093;DHT22;5600;50.864;6.102;2023-09-07T00:40:21;14.70;99.90
11093;DHT22;5600;50.864;6.102;2023-09-07T00:49:25;14.50;99.90
11093;DHT22;5600;50.864;6.102;2023-09-07T00:52:27;14.50;99.90
11093;DHT22;5600;50.864;6.102;2023-09-07T00:58:33;14.50;99.90
11093;DHT22;5600;50.864;6.102;2023-09-07T01:01:35;14.40;99.90
11093;DHT22;5600;50.864;6.102;2023-09-07T01:07:42;14.40;99.90
11093;DHT22;5600;50.864;6.102;2023-09-07T01:13:45;14.40;99.90
11093;DHT22;5600;50.864;6.102;2023-09-07T01:19:48;14.30;99.90
11093;DHT22;5600;50.864;6.102;2023-09-07T01:22:50;14.30;99.90
11093;DHT22;5600;50.864;6.102;2023-09-07T01:25:52;14.30;99.90
11093;DHT22;5600;50.864;6.102;2023-09-07T01:28:54;14.20;99.90
11093;DHT22;5600;50.864;6.102;2023-09-07T01:37:59;14.10;99.90
11093;DHT22;5600;50.864;6.102;2023-09-07T01:50:04;14.10;99.90
11093;DHT22;5600;50.864;6.102;2023-09-07T01:53:05;14.10;99.90
11093;DHT22;5600;50.864;6.102;2023-09-07T02:02:08;14.00;99.90
11093;DHT22;5600;50.864;6.102;2023-09-07T02:11:12;14.00;99.90
11093;DHT22;5600;50.864;6.102;2023-09-07T02:17:14;14.10;99.90
11093;DHT22;5600;50.864;6.102;2023-09-07T02:20:19;14.20;99.90
11093;DHT22;5600;50.864;6.102;2023-09-07T02:26:21;14.30;99.90
11093;DHT22;5600;50.864;6.102;2023-09-07T02:29:22;14.30;99.90
11093;DHT22;5600;50.864;6.102;2023-09-07T02:32:23;14.40;99.90
11093;DHT22;5600;50.864;6.102;2023-09-07T02:44:28;14.00;99.90
11093;DHT22;5600;50.864;6.102;2023-09-07T02:47:29;13.90;99.90
11093;DHT22;5600;50.864;6.102;2023-09-07T02:50:31;13.80;99.90
11093;DHT22;5600;50.864;6.102;2023-09-07T02:53:32;13.80;99.90
11093;DHT22;5600;50.864;6.102;2023-09-07T02:59:34;13.60;99.90
11093;DHT22;5600;50.864;6.102;2023-09-07T03:02:36;13.60;99.90
11093;DHT22;5600;50.864;6.102;2023-09-07T03:05:39;13.60;99.90
11093;DHT22;5600;50.864;6.102;2023-09-07T03:08:40;13.50;99.90
11093;DHT22;5600;50.864;6.102;2023-09-07T03:11:41;13.40;99.90
11093;DHT22;5600;50.864;6.102;2023-09-07T03:14:43;13.40;99.90
11093;DHT22;5600;50.864;6.102;2023-09-07T03:20:47;13.30;99.90
11093;DHT22;5600;50.864;6.102;2023-09-07T03:42:00;13.80;99.90
11093;DHT22;5600;50.864;6.102;2023-09-07T03:48:05;13.70;99.90
11093;DHT22;5600;50.864;6.102;2023-09-07T03:51:06;13.60;99.90
11093;DHT22;5600;50.864;6.102;2023-09-07T03:54:07;13.50;99.90
11093;DHT22;5600;50.864;6.102;2023-09-07T04:00:10;13.40;99.90
11093;DHT22;5600;50.864;6.102;2023-09-07T04:03:17;13.40;99.90
11093;DHT22;5600;50.864;6.102;2023-09-07T04:15:22;13.20;99.90
11093;DHT22;5600;50.864;6.102;2023-09-07T04:18:23;13.10;99.90
11093;DHT22;5600;50.864;6.102;2023-09-07T04:24:26;13.00;99.90
11093;DHT22;5600;50.864;6.102;2023-09-07T04:27:31;13.00;99.90
11093;DHT22;5600;50.864;6.102;2023-09-07T04:30:33;13.00;99.90
11093;DHT22;5600;50.864;6.102;2023-09-07T04:36:38;13.00;99.90
11093;DHT22;5600;50.864;6.102;2023-09-07T04:42:41;13.00;99.90
11093;DHT22;5600;50.864;6.102;2023-09-07T04:45:46;13.20;99.90
11093;DHT22;5600;50.864;6.102;2023-09-07T04:51:48;13.30;99.90
11093;DHT22;5600;50.864;6.102;2023-09-07T04:57:52;13.60;99.90
11093;DHT22;5600;50.864;6.102;2023-09-07T05:03:55;13.80;99.90
11093;DHT22;5600;50.864;6.102;2023-09-07T05:06:58;13.80;99.90
11093;DHT22;5600;50.864;6.102;2023-09-07T05:25:05;13.50;99.90
11093;DHT22;5600;50.864;6.102;2023-09-07T05:31:08;14.00;99.90
11093;DHT22;5600;50.864;6.102;2023-09-07T05:34:10;14.10;99.90
11093;DHT22;5600;50.864;6.102;2023-09-07T05:52:18;13.90;99.90
11093;DHT22;5600;50.864;6.102;2023-09-07T06:04:24;14.00;99.90
11093;DHT22;5600;50.864;6.102;2023-09-07T06:10:28;14.20;99.90
11093;DHT22;5600;50.864;6.102;2023-09-07T06:31:37;15.10;99.90
11093;DHT22;5600;50.864;6.102;2023-09-07T06:34:39;15.20;99.90
11093;DHT22;5600;50.864;6.102;2023-09-07T06:40:48;15.60;99.90
11093;DHT22;5600;50.864;6.102;2023-09-07T06:46:53;16.10;99.90
11093;DHT22;5600;50.864;6.102;2023-09-07T06:56:02;16.80;99.90
11093;DHT22;5600;50.864;6.102;2023-09-07T06:59:04;17.00;99.90
11093;DHT22;5600;50.864;6.102;2023-09-07T07:02:05;17.30;99.90
11093;DHT22;5600;50.864;6.102;2023-09-07T07:11:10;18.00;99.90
11093;DHT22;5600;50.864;6.102;2023-09-07T07:20:14;18.80;99.90
11093;DHT22;5600;50.864;6.102;2023-09-07T07:32:20;20.30;99.90
11093;DHT22;5600;50.864;6.102;2023-09-07T07:38:24;21.50;99.90
11093;DHT22;5600;50.864;6.102;2023-09-07T07:41:24;22.10;99.90
11093;DHT22;5600;50.864;6.102;2023-09-07T07:53:30;24.60;99.90
11093;DHT22;5600;50.864;6.102;2023-09-07T07:59:33;25.60;99.90
11093;DHT22;5600;50.864;6.102;2023-09-07T08:02:34;26.20;99.90
11093;DHT22;5600;50.864;6.102;2023-09-07T08:05:35;26.60;99.90
11093;DHT22;5600;50.864;6.102;2023-09-07T08:08:38;27.10;99.90
11093;DHT22;5600;50.864;6.102;2023-09-07T08:11:39;27.80;99.90
11093;DHT22;5600;50.864;6.102;2023-09-07T08:29:51;29.30;99.90
11093;DHT22;5600;50.864;6.102;2023-09-07T08:32:54;29.50;99.90
11093;DHT22;5600;50.864;6.102;2023-09-07T08:35:56;29.40;99.90
11093;DHT22;5600;50.864;6.102;2023-09-07T08:45:03;29.30;99.90
11093;DHT22;5600;50.864;6.102;2023-09-07T08:48:08;29.50;99.90
11093;DHT22;5600;50.864;6.102;2023-09-07T08:51:10;29.30;99.90
11093;DHT22;5600;50.864;6.102;2023-09-07T08:57:14;29.20;99.90
11093;DHT22;5600;50.864;6.102;2023-09-07T09:00:16;29.10;99.90
11093;DHT22;5600;50.864;6.102;2023-09-07T09:03:17;29.20;99.90
11093;DHT22;5600;50.864;6.102;2023-09-07T09:06:20;29.10;99.90
11093;DHT22;5600;50.864;6.102;2023-09-07T09:09:24;28.70;99.90
11093;DHT22;5600;50.864;6.102;2023-09-07T09:15:26;28.30;99.90
11093;DHT22;5600;50.864;6.102;2023-09-07T09:24:33;28.70;99.90
11093;DHT22;5600;50.864;6.102;2023-09-07T09:27:36;28.70;99.90
11093;DHT22;5600;50.864;6.102;2023-09-07T09:30:37;28.50;99.90
11093;DHT22;5600;50.864;6.102;2023-09-07T09:33:42;28.70;99.90
11093;DHT22;5600;50.864;6.102;2023-09-07T09:39:49;28.90;99.90
11093;DHT22;5600;50.864;6.102;2023-09-07T09:42:52;28.90;99.90
11093;DHT22;5600;50.864;6.102;2023-09-07T09:45:55;28.60;99.90
11093;DHT22;5600;50.864;6.102;2023-09-07T09:48:57;28.80;99.90
11093;DHT22;5600;50.864;6.102;2023-09-07T09:51:58;28.70;99.90
11093;DHT22;5600;50.864;6.102;2023-09-07T10:01:04;28.80;99.90
11093;DHT22;5600;50.864;6.102;2023-09-07T10:10:15;29.20;99.90
11093;DHT22;5600;50.864;6.102;2023-09-07T10:13:29;29.10;99.90
11093;DHT22;5600;50.864;6.102;2023-09-07T10:16:50;29.20;99.90
11093;DHT22;5600;50.864;6.102;2023-09-07T10:20:03;29.30;99.90
11093;DHT22;5600;50.864;6.102;2023-09-07T10:23:06;29.30;99.90
11093;DHT22;5600;50.864;6.102;2023-09-07T10:26:16;29.50;99.90
11093;DHT22;5600;50.864;6.102;2023-09-07T10:44:28;30.20;99.90
11093;DHT22;5600;50.864;6.102;2023-09-07T10:47:29;30.40;99.90
11093;DHT22;5600;50.864;6.102;2023-09-07T10:53:32;30.40;99.90
11093;DHT22;5600;50.864;6.102;2023-09-07T10:56:33;30.70;99.90
11093;DHT22;5600;50.864;6.102;2023-09-07T11:05:36;30.90;99.90
11093;DHT22;5600;50.864;6.102;2023-09-07T11:11:38;31.10;99.90
11093;DHT22;5600;50.864;6.102;2023-09-07T11:20:42;31.30;99.90
11093;DHT22;5600;50.864;6.102;2023-09-07T11:23:42;31.50;99.90
11093;DHT22;5600;50.864;6.102;2023-09-07T11:26:46;31.60;99.90
11093;DHT22;5600;50.864;6.102;2023-09-07T11:29:52;31.60;99.90
11093;DHT22;5600;50.864;6.102;2023-09-07T11:33:01;31.70;99.90
11093;DHT22;5600;50.864;6.102;2023-09-07T11:36:02;31.60;99.90
11093;DHT22;5600;50.864;6.102;2023-09-07T12:00:20;32.10;99.90
11093;DHT22;5600;50.864;6.102;2023-09-07T12:03:22;31.90;99.90
11093;DHT22;5600;50.864;6.102;2023-09-07T12:36:34;32.10;99.90
11093;DHT22;5600;50.864;6.102;2023-09-07T12:42:37;32.10;99.90
11093;DHT22;5600;50.864;6.102;2023-09-07T12:48:39;32.30;99.90
11093;DHT22;5600;50.864;6.102;2023-09-07T13:15:50;32.80;99.90
11093;DHT22;5600;50.864;6.102;2023-09-07T13:18:50;32.60;99.90
11093;DHT22;5600;50.864;6.102;2023-09-07T13:24:52;32.30;99.90
11093;DHT22;5600;50.864;6.102;2023-09-07T13:30:54;32.30;99.90
11093;DHT22;5600;50.864;6.102;2023-09-07T13:36:56;32.40;99.80
11093;DHT22;5600;50.864;6.102;2023-09-07T13:55:03;33.40;98.50
11093;DHT22;5600;50.864;6.102;2023-09-07T13:58:04;33.40;97.30
11093;DHT22;5600;50.864;6.102;2023-09-07T14:07:08;33.20;97.50
11093;DHT22;5600;50.864;6.102;2023-09-07T14:16:11;32.80;97.90
11093;DHT22;5600;50.864;6.102;2023-09-07T14:22:13;32.50;97.00
11093;DHT22;5600;50.864;6.102;2023-09-07T14:28:16;32.40;97.40
11093;DHT22;5600;50.864;6.102;2023-09-07T14:46:26;32.80;96.90
11093;DHT22;5600;50.864;6.102;2023-09-07T14:49:26;32.80;96.50
11093;DHT22;5600;50.864;6.102;2023-09-07T15:01:30;32.50;96.40
11093;DHT22;5600;50.864;6.102;2023-09-07T15:04:33;32.50;96.20
11093;DHT22;5600;50.864;6.102;2023-09-07T15:07:34;32.40;96.40
11093;DHT22;5600;50.864;6.102;2023-09-07T15:10:34;32.40;96.00
11093;DHT22;5600;50.864;6.102;2023-09-07T15:19:39;32.10;96.60
11093;DHT22;5600;50.864;6.102;2023-09-07T15:40:48;31.60;98.40
11093;DHT22;5600;50.864;6.102;2023-09-07T15:46:50;31.40;98.70
11093;DHT22;5600;50.864;6.102;2023-09-07T15:49:52;31.40;97.90
11093;DHT22;5600;50.864;6.102;2023-09-07T16:11:00;30.00;99.90
11093;DHT22;5600;50.864;6.102;2023-09-07T16:26:07;29.60;99.90
11093;DHT22;5600;50.864;6.102;2023-09-07T16:41:15;29.00;99.90
11093;DHT22;5600;50.864;6.102;2023-09-07T16:44:15;28.90;99.90
11093;DHT22;5600;50.864;6.102;2023-09-07T16:47:16;28.80;99.90
11093;DHT22;5600;50.864;6.102;2023-09-07T16:50:17;28.80;99.90
11093;DHT22;5600;50.864;6.102;2023-09-07T17:08:25;28.00;99.90
11093;DHT22;5600;50.864;6.102;2023-09-07T17:11:25;27.90;99.90
11093;DHT22;5600;50.864;6.102;2023-09-07T17:14:27;27.80;99.90
11093;DHT22;5600;50.864;6.102;2023-09-07T17:20:29;27.70;99.90
11093;DHT22;5600;50.864;6.102;2023-09-07T17:26:31;27.40;99.90
11093;DHT22;5600;50.864;6.102;2023-09-07T17:35:37;27.10;99.90
11093;DHT22;5600;50.864;6.102;2023-09-07T17:38:38;27.00;99.90
11093;DHT22;5600;50.864;6.102;2023-09-07T17:41:38;26.90;99.90
11093;DHT22;5600;50.864;6.102;2023-09-07T17:47:43;26.70;99.90
11093;DHT22;5600;50.864;6.102;2023-09-07T17:50:48;26.50;99.90
11093;DHT22;5600;50.864;6.102;2023-09-07T17:56:49;26.20;99.90
11093;DHT22;5600;50.864;6.102;2023-09-07T17:59:50;26.10;99.90
11093;DHT22;5600;50.864;6.102;2023-09-07T18:02:58;25.90;99.90
11093;DHT22;5600;50.864;6.102;2023-09-07T18:05:59;25.80;99.90
11093;DHT22;5600;50.864;6.102;2023-09-07T18:15:03;25.40;99.90
11093;DHT22;5600;50.864;6.102;2023-09-07T18:18:04;25.30;99.90
11093;DHT22;5600;50.864;6.102;2023-09-07T18:21:08;25.20;99.90
11093;DHT22;5600;50.864;6.102;2023-09-07T18:24:09;25.00;99.90
11093;DHT22;5600;50.864;6.102;2023-09-07T18:33:12;24.70;99.90
11093;DHT22;5600;50.864;6.102;2023-09-07T18:39:14;24.50;99.90
11093;DHT22;5600;50.864;6.102;2023-09-07T18:42:15;24.50;99.90
11093;DHT22;5600;50.864;6.102;2023-09-07T18:45:17;24.40;99.90
11093;DHT22;5600;50.864;6.102;2023-09-07T18:57:22;24.10;99.90
11093;DHT22;5600;50.864;6.102;2023-09-07T19:03:24;23.80;99.90
11093;DHT22;5600;50.864;6.102;2023-09-07T19:06:26;23.60;99.90
11093;DHT22;5600;50.864;6.102;2023-09-07T19:24:33;22.60;99.90
11093;DHT22;5600;50.864;6.102;2023-09-07T19:30:35;22.20;99.90
11093;DHT22;5600;50.864;6.102;2023-09-07T19:33:36;22.00;99.90
11093;DHT22;5600;50.864;6.102;2023-09-07T19:39:38;21.60;99.90
11093;DHT22;5600;50.864;6.102;2023-09-07T19:42:38;21.50;99.90
11093;DHT22;5600;50.864;6.102;2023-09-07T19:45:44;21.40;99.90
11093;DHT22;5600;50.864;6.102;2023-09-07T19:48:48;21.30;99.90
11093;DHT22;5600;50.864;6.102;2023-09-07T19:54:50;21.10;99.90
11093;DHT22;5600;50.864;6.102;2023-09-07T19:57:51;21.00;99.90
11093;DHT22;5600;50.864;6.102;2023-09-07T20:03:53;20.70;99.90
11093;DHT22;5600;50.864;6.102;2023-09-07T20:06:55;20.60;99.90
11093;DHT22;5600;50.864;6.102;2023-09-07T20:09:55;20.60;99.90
11093;DHT22;5600;50.864;6.102;2023-09-07T20:15:58;20.30;99.90
11093;DHT22;5600;50.864;6.102;2023-09-07T20:21:59;20.00;99.90
11093;DHT22;5600;50.864;6.102;2023-09-07T20:31:02;19.70;99.90
11093;DHT22;5600;50.864;6.102;2023-09-07T20:43:10;19.30;99.90
11093;DHT22;5600;50.864;6.102;2023-09-07T20:52:15;18.90;99.90
11093;DHT22;5600;50.864;6.102;2023-09-07T20:58:17;18.60;99.90
11093;DHT22;5600;50.864;6.102;2023-09-07T21:01:18;18.70;99.90
11093;DHT22;5600;50.864;6.102;2023-09-07T21:07:20;18.50;99.90
11093;DHT22;5600;50.864;6.102;2023-09-07T21:22:26;18.30;99.90
11093;DHT22;5600;50.864;6.102;2023-09-07T21:28:28;18.20;99.90
11093;DHT22;5600;50.864;6.102;2023-09-07T21:31:29;18.20;99.90
11093;DHT22;5600;50.864;6.102;2023-09-07T21:37:31;18.20;99.90
11093;DHT22;5600;50.864;6.102;2023-09-07T21:40:32;18.20;99.90
11093;DHT22;5600;50.864;6.102;2023-09-07T21:46:34;18.10;99.90
11093;DHT22;5600;50.864;6.102;2023-09-07T21:58:38;17.70;99.90
11093;DHT22;5600;50.864;6.102;2023-09-07T22:01:39;17.60;99.90
11093;DHT22;5600;50.864;6.102;2023-09-07T22:07:41;17.40;99.90
11093;DHT22;5600;50.864;6.102;2023-09-07T22:13:43;17.20;99.90
11093;DHT22;5600;50.864;6.102;2023-09-07T22:16:44;17.10;99.90
11093;DHT22;5600;50.864;6.102;2023-09-07T22:22:46;16.90;99.90
11093;DHT22;5600;50.864;6.102;2023-09-07T22:28:48;16.80;99.90
11093;DHT22;5600;50.864;6.102;2023-09-07T22:31:49;16.70;99.90
11093;DHT22;5600;50.864;6.102;2023-09-07T22:37:51;16.80;99.90
11093;DHT22;5600;50.864;6.102;2023-09-07T22:40:55;16.80;99.90
11093;DHT22;5600;50.864;6.102;2023-09-07T22:46:57;16.90;99.90
11093;DHT22;5600;50.864;6.102;2023-09-07T22:49:58;17.00;99.90
11093;DHT22;5600;50.864;6.102;2023-09-07T23:05:05;16.90;99.90
11093;DHT22;5600;50.864;6.102;2023-09-07T23:24:53;16.60;99.90
11093;DHT22;5600;50.864;6.102;2023-09-07T23:36:57;16.60;99.90
11093;DHT22;5600;50.864;6.102;2023-09-07T23:52:03;16.40;99.90
